Time;durP1;ratioP1;P1;durP2;ratioP2;P2;SDS_P1;SDS_P2;PMS_P1;PMS_P2;Temp;Humidity;BMP_temperature;BMP_pressure;BME280_temperature;BME280_humidity;BME280_pressure;Samples;Min_cycle;Max_cycle;Signal;HPM_P1;HPM_P2
2021/12/23 00:02:09;;;;;;;15.73;7.95;;;;;;;;;;5064168;28;20078;-57
2021/12/23 00:04:36;;;;;;;16.33;7.90;;;;;;;;;;5064674;28;20414;-57
2021/12/23 00:07:02;;;;;;;15.43;7.90;;;;;;;;;;5066563;28;20099;-57
2021/12/23 00:09:52;;;;;;;13.70;7.63;;;;;;;;;;5062973;28;20063;-57
2021/12/23 00:12:14;;;;;;;14.77;8.20;;;;;;;;;;5048714;28;20530;-57
2021/12/23 00:14:41;;;;;;;13.73;7.70;;;;;;;;;;5047420;28;20025;-57
2021/12/23 00:17:52;;;;;;;14.35;8.05;;;;;;;;;;5047749;28;20085;-57
2021/12/23 00:23:22;;;;;;;12.30;7.32;;;;;;;;;;5046829;28;20494;-56
2021/12/23 00:23:46;;;;;;;14.35;7.50;;;;;;;;;;5063504;28;20041;-56
2021/12/23 00:25:40;;;;;;;14.35;8.07;;;;;;;;;;5049139;28;20550;-56
2021/12/23 00:28:06;;;;;;;13.23;7.55;;;;;;;;;;5067258;28;20035;-56
2021/12/23 00:30:32;;;;;;;15.90;8.05;;;;;;;;;;5047744;28;20881;-56
2021/12/23 00:32:59;;;;;;;12.10;6.63;;;;;;;;;;5067254;28;20044;-56
2021/12/23 00:35:25;;;;;;;12.88;6.97;;;;;;;;;;5066668;28;20020;-56
2021/12/23 00:37:57;;;;;;;13.50;7.05;;;;;;;;;;5066960;28;20151;-56
2021/12/23 00:40:24;;;;;;;12.57;7.35;;;;;;;;;;5065672;28;20063;-56
2021/12/23 00:42:50;;;;;;;12.75;7.22;;;;;;;;;;5065681;28;20040;-56
2021/12/23 00:45:16;;;;;;;13.98;7.03;;;;;;;;;;5066437;28;20059;-56
2021/12/23 00:47:42;;;;;;;14.05;7.13;;;;;;;;;;5065326;28;20025;-56
2021/12/23 00:50:09;;;;;;;13.95;7.63;;;;;;;;;;5067069;28;20487;-56
2021/12/23 00:52:37;;;;;;;15.15;7.85;;;;;;;;;;5064852;28;20089;-57
2021/12/23 00:55:06;;;;;;;13.95;7.43;;;;;;;;;;5066024;28;20574;-56
2021/12/23 00:57:37;;;;;;;17.83;8.80;;;;;;;;;;5066876;28;20024;-56
2021/12/23 01:00:05;;;;;;;17.20;8.55;;;;;;;;;;5066933;28;20587;-56
2021/12/23 01:02:32;;;;;;;17.63;8.85;;;;;;;;;;5047025;28;20029;-56
2021/12/23 01:04:59;;;;;;;17.52;9.32;;;;;;;;;;5066706;28;20103;-56
2021/12/23 01:07:25;;;;;;;17.08;9.30;;;;;;;;;;5065852;28;20051;-56
2021/12/23 01:09:51;;;;;;;13.95;8.00;;;;;;;;;;5066391;28;20458;-56
2021/12/23 01:12:23;;;;;;;16.63;8.77;;;;;;;;;;5063410;28;20028;-56
2021/12/23 01:15:11;;;;;;;15.07;8.45;;;;;;;;;;5066483;28;20027;-56
2021/12/23 01:17:58;;;;;;;12.43;7.10;;;;;;;;;;5064786;28;20031;-56
2021/12/23 01:20:29;;;;;;;11.10;6.57;;;;;;;;;;5065651;28;20563;-56
2021/12/23 01:22:56;;;;;;;13.25;6.57;;;;;;;;;;5065392;28;20029;-56
2021/12/23 01:25:23;;;;;;;14.25;6.75;;;;;;;;;;5065682;28;20032;-56
2021/12/23 01:27:49;;;;;;;11.55;6.93;;;;;;;;;;5065378;28;20057;-55
2021/12/23 01:30:17;;;;;;;11.25;5.90;;;;;;;;;;5064002;28;20118;-56
2021/12/23 01:32:44;;;;;;;13.18;7.13;;;;;;;;;;5065001;28;20371;-56
2021/12/23 01:35:10;;;;;;;13.40;7.15;;;;;;;;;;5065616;28;20036;-56
2021/12/23 01:37:36;;;;;;;11.77;7.03;;;;;;;;;;5065805;28;20024;-56
2021/12/23 01:40:04;;;;;;;10.82;6.10;;;;;;;;;;5066106;28;20036;-56
2021/12/23 01:42:30;;;;;;;8.73;5.78;;;;;;;;;;5065278;28;20486;-56
2021/12/23 01:44:56;;;;;;;8.60;5.40;;;;;;;;;;5066068;28;20045;-56
2021/12/23 01:47:23;;;;;;;10.02;6.03;;;;;;;;;;5065709;28;20522;-56
2021/12/23 01:49:49;;;;;;;11.43;6.35;;;;;;;;;;5063805;28;20036;-56
2021/12/23 01:52:15;;;;;;;10.07;5.82;;;;;;;;;;5063600;28;20021;-56
2021/12/23 01:54:41;;;;;;;11.30;5.80;;;;;;;;;;5067647;28;20468;-56
2021/12/23 01:57:08;;;;;;;8.60;5.00;;;;;;;;;;5070204;28;20068;-56
2021/12/23 01:59:34;;;;;;;8.00;4.88;;;;;;;;;;5068617;28;20107;-56
2021/12/23 02:02:00;;;;;;;9.40;5.05;;;;;;;;;;5069710;28;20086;-56
2021/12/23 02:04:26;;;;;;;7.80;4.65;;;;;;;;;;5069339;28;20037;-56
2021/12/23 02:06:52;;;;;;;13.70;6.97;;;;;;;;;;5069705;28;20103;-56
2021/12/23 02:09:18;;;;;;;14.60;6.70;;;;;;;;;;5051401;28;20529;-60
2021/12/23 02:11:45;;;;;;;19.95;8.77;;;;;;;;;;5069583;28;20087;-56
2021/12/23 02:14:11;;;;;;;17.60;8.23;;;;;;;;;;5067346;28;20042;-56
2021/12/23 02:16:37;;;;;;;17.70;7.97;;;;;;;;;;5069248;28;20066;-56
2021/12/23 02:19:17;;;;;;;15.93;7.97;;;;;;;;;;5069383;28;20399;-56
2021/12/23 02:21:44;;;;;;;13.98;6.63;;;;;;;;;;5069207;28;20025;-56
2021/12/23 02:24:10;;;;;;;11.85;6.88;;;;;;;;;;5069683;28;20112;-56
2021/12/23 02:26:39;;;;;;;11.88;6.38;;;;;;;;;;5068312;28;20555;-56
2021/12/23 02:29:05;;;;;;;12.27;6.43;;;;;;;;;;5067184;28;20117;-56
2021/12/23 02:31:32;;;;;;;9.85;5.47;;;;;;;;;;5068719;28;20107;-56
2021/12/23 02:33:59;;;;;;;9.20;5.35;;;;;;;;;;5067036;28;20451;-56
2021/12/23 02:36:26;;;;;;;9.52;5.28;;;;;;;;;;5067051;28;20060;-56
2021/12/23 02:38:54;;;;;;;9.65;4.80;;;;;;;;;;5066211;28;20115;-56
2021/12/23 02:41:20;;;;;;;8.07;4.88;;;;;;;;;;5067586;28;20054;-56
2021/12/23 02:43:46;;;;;;;6.03;4.03;;;;;;;;;;5067582;28;20121;-56
2021/12/23 02:46:13;;;;;;;6.97;4.20;;;;;;;;;;5065708;28;20024;-56
2021/12/23 02:48:39;;;;;;;5.55;3.50;;;;;;;;;;5066152;28;20087;-56
2021/12/23 02:51:11;;;;;;;4.95;3.38;;;;;;;;;;5065053;28;20031;-57
2021/12/23 02:53:38;;;;;;;6.18;3.80;;;;;;;;;;5047171;28;20026;-56
2021/12/23 02:56:05;;;;;;;4.82;3.33;;;;;;;;;;5058721;28;20027;-56
2021/12/23 02:58:32;;;;;;;4.95;3.30;;;;;;;;;;5066327;28;20032;-56
2021/12/23 03:01:00;;;;;;;4.93;3.38;;;;;;;;;;5067070;28;20090;-56
2021/12/23 03:03:26;;;;;;;5.57;3.67;;;;;;;;;;5066312;28;20422;-56
2021/12/23 03:05:54;;;;;;;4.40;3.00;;;;;;;;;;5065879;28;20503;-57
2021/12/23 03:08:32;;;;;;;4.80;3.20;;;;;;;;;;5066705;28;20530;-56
2021/12/23 03:10:58;;;;;;;5.93;3.25;;;;;;;;;;5066717;28;20028;-56
2021/12/23 03:13:24;;;;;;;3.85;2.72;;;;;;;;;;5066898;28;20446;-56
2021/12/23 03:15:52;;;;;;;3.70;2.60;;;;;;;;;;5066879;28;20021;-57
2021/12/23 03:18:19;;;;;;;3.88;2.47;;;;;;;;;;5066313;28;20323;-56
2021/12/23 03:20:45;;;;;;;4.90;2.53;;;;;;;;;;5063831;28;20052;-57
2021/12/23 03:23:11;;;;;;;3.58;2.22;;;;;;;;;;5066502;28;20055;-56
2021/12/23 03:25:37;;;;;;;3.35;2.42;;;;;;;;;;5066565;28;20028;-56
2021/12/23 03:28:03;;;;;;;4.40;2.70;;;;;;;;;;5067420;28;20104;-56
2021/12/23 03:30:30;;;;;;;6.00;3.40;;;;;;;;;;5066189;28;20543;-56
2021/12/23 03:32:56;;;;;;;4.45;3.13;;;;;;;;;;5066529;28;20035;-56
2021/12/23 03:35:22;;;;;;;3.78;2.58;;;;;;;;;;5065329;28;20020;-56
2021/12/23 03:37:48;;;;;;;4.13;2.97;;;;;;;;;;5066600;28;20056;-56
2021/12/23 03:40:15;;;;;;;6.07;3.40;;;;;;;;;;5064346;28;20036;-56
2021/12/23 03:42:41;;;;;;;5.32;3.30;;;;;;;;;;5066580;28;20032;-55
2021/12/23 03:45:08;;;;;;;6.82;3.95;;;;;;;;;;5066455;28;20542;-56
2021/12/23 03:47:38;;;;;;;7.05;4.65;;;;;;;;;;5066121;28;20059;-56
2021/12/23 03:50:04;;;;;;;7.30;4.43;;;;;;;;;;5066450;28;20017;-56
2021/12/23 03:52:30;;;;;;;6.40;4.00;;;;;;;;;;5064691;28;20029;-56
2021/12/23 03:54:57;;;;;;;6.10;3.75;;;;;;;;;;5066153;28;20765;-55
2021/12/23 03:57:23;;;;;;;6.68;3.70;;;;;;;;;;5065809;28;20025;-56
2021/12/23 03:59:49;;;;;;;5.38;3.42;;;;;;;;;;5065943;28;20487;-56
2021/12/23 04:02:15;;;;;;;5.50;3.55;;;;;;;;;;5065609;28;20111;-56
2021/12/23 04:04:42;;;;;;;5.35;3.75;;;;;;;;;;5065226;28;20024;-56
2021/12/23 04:07:09;;;;;;;4.20;2.92;;;;;;;;;;5063704;28;20037;-57
2021/12/23 04:09:35;;;;;;;5.13;3.33;;;;;;;;;;5064506;28;20086;-57
2021/12/23 04:12:01;;;;;;;6.47;3.75;;;;;;;;;;5066816;28;20496;-56
2021/12/23 04:14:28;;;;;;;5.38;3.40;;;;;;;;;;5064389;28;20055;-57
2021/12/23 04:16:54;;;;;;;4.57;3.10;;;;;;;;;;5064183;28;20036;-56
2021/12/23 04:19:20;;;;;;;4.93;3.05;;;;;;;;;;5065274;28;20024;-56
2021/12/23 04:21:46;;;;;;;5.35;3.67;;;;;;;;;;5065571;28;20430;-57
2021/12/23 04:24:12;;;;;;;3.88;2.75;;;;;;;;;;5064811;28;20025;-56
2021/12/23 04:26:39;;;;;;;6.10;3.33;;;;;;;;;;5064394;28;20189;-56
2021/12/23 04:29:06;;;;;;;4.75;3.33;;;;;;;;;;5065157;28;20032;-56
2021/12/23 04:31:34;;;;;;;5.22;3.40;;;;;;;;;;5065232;28;20032;-55
2021/12/23 04:34:00;;;;;;;5.10;3.50;;;;;;;;;;5065223;28;20024;-56
2021/12/23 04:36:29;;;;;;;5.28;3.20;;;;;;;;;;5063728;28;20625;-56
2021/12/23 04:38:56;;;;;;;4.93;3.05;;;;;;;;;;5065157;28;20036;-56
2021/12/23 04:41:22;;;;;;;5.88;3.35;;;;;;;;;;5063836;28;20036;-56
2021/12/23 04:43:48;;;;;;;5.70;3.13;;;;;;;;;;5065029;28;20525;-56
2021/12/23 04:46:14;;;;;;;4.53;3.08;;;;;;;;;;5064880;28;20032;-56
2021/12/23 04:48:41;;;;;;;4.55;2.90;;;;;;;;;;5065042;28;20237;-56
2021/12/23 04:51:08;;;;;;;4.38;2.30;;;;;;;;;;5064858;28;20028;-56
2021/12/23 04:53:34;;;;;;;4.40;3.10;;;;;;;;;;5065576;28;20396;-57
2021/12/23 04:56:00;;;;;;;4.22;2.65;;;;;;;;;;5065016;28;20074;-56
2021/12/23 04:58:26;;;;;;;2.50;2.00;;;;;;;;;;5063847;28;20033;-56
2021/12/23 05:00:52;;;;;;;3.35;2.17;;;;;;;;;;5065100;28;20043;-56
2021/12/23 05:03:19;;;;;;;3.17;2.08;;;;;;;;;;5064492;28;20024;-55
2021/12/23 05:05:46;;;;;;;3.95;2.67;;;;;;;;;;5064897;28;20082;-56
2021/12/23 05:08:12;;;;;;;2.80;2.20;;;;;;;;;;5064805;28;20098;-55
2021/12/23 05:10:40;;;;;;;3.83;2.40;;;;;;;;;;5064789;28;20025;-56
2021/12/23 05:13:06;;;;;;;4.50;2.88;;;;;;;;;;5062915;28;20446;-56
2021/12/23 05:15:33;;;;;;;4.35;2.75;;;;;;;;;;5064452;28;20059;-56
2021/12/23 05:17:59;;;;;;;4.85;3.25;;;;;;;;;;5065041;28;20461;-56
2021/12/23 05:20:26;;;;;;;4.53;3.13;;;;;;;;;;5064654;28;20024;-56
2021/12/23 05:22:54;;;;;;;6.43;3.33;;;;;;;;;;5064288;28;20043;-56
2021/12/23 05:25:20;;;;;;;4.50;3.38;;;;;;;;;;5064442;28;20038;-56
2021/12/23 05:27:47;;;;;;;4.03;2.85;;;;;;;;;;5064518;28;20024;-55
2021/12/23 05:30:15;;;;;;;6.93;3.50;;;;;;;;;;5060621;28;20056;-56
2021/12/23 05:32:43;;;;;;;4.65;3.25;;;;;;;;;;5064640;28;20059;-56
2021/12/23 05:35:09;;;;;;;7.07;3.60;;;;;;;;;;5064675;28;20236;-56
2021/12/23 05:37:35;;;;;;;6.57;3.30;;;;;;;;;;5064534;28;20021;-56
2021/12/23 05:40:02;;;;;;;5.20;3.28;;;;;;;;;;5065213;28;20119;-56
2021/12/23 05:42:29;;;;;;;4.90;3.22;;;;;;;;;;5046413;28;20051;-56
2021/12/23 05:44:55;;;;;;;5.30;3.58;;;;;;;;;;5062435;28;20071;-55
2021/12/23 05:47:21;;;;;;;6.80;3.45;;;;;;;;;;5062341;28;20028;-56
2021/12/23 05:49:47;;;;;;;6.25;3.33;;;;;;;;;;5063506;28;20032;-55
2021/12/23 05:52:14;;;;;;;6.18;3.17;;;;;;;;;;5064405;28;20509;-56
2021/12/23 05:54:40;;;;;;;5.07;3.45;;;;;;;;;;5064542;28;20044;-56
2021/12/23 05:57:08;;;;;;;4.53;2.80;;;;;;;;;;5064103;28;20496;-56
2021/12/23 05:59:34;;;;;;;5.35;3.30;;;;;;;;;;5065015;28;20086;-55
2021/12/23 06:02:01;;;;;;;5.70;3.38;;;;;;;;;;5064068;28;20025;-56
2021/12/23 06:04:27;;;;;;;5.13;3.60;;;;;;;;;;5066954;28;20054;-56
2021/12/23 06:06:53;;;;;;;5.05;3.20;;;;;;;;;;5069354;28;20496;-56
2021/12/23 06:09:20;;;;;;;5.60;2.90;;;;;;;;;;5059974;28;20392;-56
2021/12/23 06:11:46;;;;;;;5.22;3.20;;;;;;;;;;5064234;28;20043;-56
2021/12/23 06:14:12;;;;;;;8.70;5.00;;;;;;;;;;5065692;28;20177;-56
2021/12/23 06:16:38;;;;;;;9.48;4.97;;;;;;;;;;5065599;28;20111;-56
2021/12/23 06:19:04;;;;;;;9.38;4.82;;;;;;;;;;5066014;28;20709;-56
2021/12/23 06:21:31;;;;;;;7.45;4.75;;;;;;;;;;5066366;28;20028;-56
2021/12/23 06:23:58;;;;;;;6.88;4.10;;;;;;;;;;5065610;28;20149;-56
2021/12/23 06:26:24;;;;;;;6.45;3.95;;;;;;;;;;5064414;28;20559;-56
2021/12/23 06:28:50;;;;;;;5.78;3.58;;;;;;;;;;5065337;28;20056;-55
2021/12/23 06:31:16;;;;;;;5.55;3.03;;;;;;;;;;5043560;28;20693;-56
2021/12/23 06:33:43;;;;;;;5.47;3.70;;;;;;;;;;5063422;28;20045;-56
2021/12/23 06:36:09;;;;;;;5.43;3.60;;;;;;;;;;5063759;28;20042;-56
2021/12/23 06:38:35;;;;;;;6.10;3.60;;;;;;;;;;5063180;28;20248;-56
2021/12/23 06:41:02;;;;;;;5.75;3.38;;;;;;;;;;5068109;28;20112;-56
2021/12/23 06:43:28;;;;;;;3.97;2.85;;;;;;;;;;5065839;28;20052;-56
2021/12/23 06:45:54;;;;;;;4.80;2.97;;;;;;;;;;5067498;28;20037;-56
2021/12/23 06:48:20;;;;;;;4.47;2.95;;;;;;;;;;5067547;28;20489;-56
2021/12/23 06:50:46;;;;;;;3.97;2.60;;;;;;;;;;5067390;28;20032;-55
2021/12/23 06:53:15;;;;;;;4.97;2.75;;;;;;;;;;5068832;28;20024;-54
2021/12/23 06:55:42;;;;;;;3.90;2.45;;;;;;;;;;5068005;28;20035;-54
2021/12/23 06:58:08;;;;;;;3.33;2.13;;;;;;;;;;5067901;28;20028;-54
2021/12/23 07:00:34;;;;;;;2.75;2.10;;;;;;;;;;5068338;28;20048;-56
2021/12/23 07:03:00;;;;;;;3.60;2.53;;;;;;;;;;5069168;28;20021;-56
2021/12/23 07:05:26;;;;;;;3.72;2.42;;;;;;;;;;5049053;28;20375;-56
2021/12/23 07:07:55;;;;;;;5.47;2.83;;;;;;;;;;5065791;28;20021;-56
2021/12/23 07:10:23;;;;;;;3.10;2.10;;;;;;;;;;5048862;28;20528;-56
2021/12/23 07:12:51;;;;;;;5.05;2.85;;;;;;;;;;5067220;28;20218;-54
2021/12/23 07:15:17;;;;;;;5.22;3.22;;;;;;;;;;5065672;28;20016;-56
2021/12/23 07:17:43;;;;;;;3.10;2.05;;;;;;;;;;5065026;28;20387;-57
2021/12/23 07:20:09;;;;;;;5.40;2.63;;;;;;;;;;5063670;28;20036;-57
2021/12/23 07:22:35;;;;;;;3.72;2.65;;;;;;;;;;5067612;28;20436;-56
2021/12/23 07:25:01;;;;;;;3.33;2.42;;;;;;;;;;5068953;28;20051;-56
2021/12/23 07:27:27;;;;;;;2.55;2.20;;;;;;;;;;5066677;28;20029;-56
2021/12/23 07:29:53;;;;;;;4.40;2.30;;;;;;;;;;5066248;28;20064;-56
2021/12/23 07:32:19;;;;;;;4.70;2.60;;;;;;;;;;5066136;28;20403;-56
2021/12/23 07:34:45;;;;;;;5.28;2.50;;;;;;;;;;5066712;28;20020;-56
2021/12/23 07:37:12;;;;;;;5.07;2.92;;;;;;;;;;5066308;28;20021;-55
2021/12/23 07:39:39;;;;;;;4.03;2.72;;;;;;;;;;5066146;28;20036;-56
2021/12/23 07:42:06;;;;;;;5.72;3.00;;;;;;;;;;5066473;28;20111;-56
2021/12/23 07:44:33;;;;;;;3.88;2.88;;;;;;;;;;5067103;28;20033;-56
2021/12/23 07:46:59;;;;;;;4.88;3.17;;;;;;;;;;5067024;28;20418;-56
2021/12/23 07:49:27;;;;;;;3.72;2.65;;;;;;;;;;5066457;28;20039;-56
2021/12/23 07:51:53;;;;;;;6.32;3.70;;;;;;;;;;5065242;28;20408;-56
2021/12/23 07:54:19;;;;;;;4.93;3.33;;;;;;;;;;5065989;28;20029;-56
2021/12/23 07:56:47;;;;;;;4.47;3.20;;;;;;;;;;5066152;28;20071;-56
2021/12/23 07:59:14;;;;;;;4.13;3.08;;;;;;;;;;5065967;28;20022;-56
2021/12/23 08:01:41;;;;;;;6.65;4.05;;;;;;;;;;5065898;28;20025;-56
2021/12/23 08:04:08;;;;;;;5.50;3.67;;;;;;;;;;5065922;28;20025;-56
2021/12/23 08:06:35;;;;;;;5.13;3.67;;;;;;;;;;5065881;28;20035;-56
2021/12/23 08:09:02;;;;;;;5.15;3.97;;;;;;;;;;5066657;28;20036;-56
2021/12/23 08:11:29;;;;;;;4.93;3.53;;;;;;;;;;5066381;28;20023;-56
2021/12/23 08:13:55;;;;;;;5.80;3.63;;;;;;;;;;5065740;28;20024;-56
2021/12/23 08:16:21;;;;;;;6.65;3.58;;;;;;;;;;5064861;28;20092;-56
2021/12/23 08:18:48;;;;;;;5.82;3.15;;;;;;;;;;5065552;28;20033;-56
2021/12/23 08:21:14;;;;;;;5.80;3.55;;;;;;;;;;5047404;28;20025;-56
2021/12/23 08:23:40;;;;;;;5.88;3.70;;;;;;;;;;5065577;28;20529;-56
2021/12/23 08:26:13;;;;;;;5.50;3.25;;;;;;;;;;5065214;28;20028;-56
2021/12/23 08:28:40;;;;;;;5.72;3.65;;;;;;;;;;5065632;28;20116;-55
2021/12/23 08:31:06;;;;;;;7.32;3.95;;;;;;;;;;5064714;28;20029;-56
2021/12/23 08:33:33;;;;;;;5.70;3.47;;;;;;;;;;5066003;28;20031;-56
2021/12/23 08:36:00;;;;;;;4.47;3.10;;;;;;;;;;5065601;28;20032;-56
2021/12/23 08:38:26;;;;;;;4.82;2.83;;;;;;;;;;5064783;28;20032;-56
2021/12/23 08:40:52;;;;;;;4.30;3.05;;;;;;;;;;5064494;28;20089;-56
2021/12/23 08:43:18;;;;;;;4.32;2.70;;;;;;;;;;5064807;28;20403;-56
2021/12/23 08:45:45;;;;;;;4.80;2.97;;;;;;;;;;5078499;28;20035;-56
2021/12/23 08:48:11;;;;;;;4.93;2.92;;;;;;;;;;5073042;28;20037;-56
2021/12/23 08:50:37;;;;;;;4.45;2.67;;;;;;;;;;5048222;28;20118;-57
2021/12/23 08:53:03;;;;;;;3.65;2.42;;;;;;;;;;5066403;28;20107;-57
2021/12/23 08:55:31;;;;;;;3.50;2.38;;;;;;;;;;5066358;28;20088;-57
2021/12/23 08:57:58;;;;;;;3.90;2.53;;;;;;;;;;5077763;28;20450;-57
2021/12/23 09:00:26;;;;;;;3.50;2.33;;;;;;;;;;5086021;28;20095;-56
2021/12/23 09:02:52;;;;;;;3.83;2.30;;;;;;;;;;5086405;28;20028;-57
2021/12/23 09:05:19;;;;;;;2.85;1.90;;;;;;;;;;5086071;28;20308;-57
2021/12/23 09:07:45;;;;;;;3.92;2.42;;;;;;;;;;5087071;28;20024;-57
2021/12/23 09:10:12;;;;;;;3.25;2.30;;;;;;;;;;5086590;28;20024;-57
2021/12/23 09:12:38;;;;;;;3.70;2.28;;;;;;;;;;5086195;28;20679;-57
2021/12/23 09:15:05;;;;;;;2.97;2.10;;;;;;;;;;5070729;28;20058;-57
2021/12/23 09:17:31;;;;;;;2.85;1.90;;;;;;;;;;5065745;28;20032;-57
2021/12/23 09:19:57;;;;;;;2.88;2.13;;;;;;;;;;5066294;28;20099;-57
2021/12/23 09:22:23;;;;;;;3.78;2.35;;;;;;;;;;5065653;28;20034;-57
2021/12/23 09:24:52;;;;;;;2.90;2.08;;;;;;;;;;5066028;28;20111;-57
2021/12/23 09:27:33;;;;;;;2.47;1.67;;;;;;;;;;5064963;28;20108;-57
2021/12/23 09:32:53;;;;;;;2.88;2.17;;;;;;;;;;5064841;28;20165;-57
2021/12/23 09:35:21;;;;;;;2.85;2.15;;;;;;;;;;5064152;28;20384;-57
2021/12/23 09:37:47;;;;;;;2.90;2.13;;;;;;;;;;5062878;28;20392;-57
2021/12/23 09:40:13;;;;;;;4.10;2.20;;;;;;;;;;5064532;28;20054;-57
2021/12/23 09:42:39;;;;;;;3.25;2.10;;;;;;;;;;5064509;28;20147;-57
2021/12/23 09:45:09;;;;;;;2.95;2.17;;;;;;;;;;5064203;28;20426;-57
2021/12/23 09:47:36;;;;;;;3.38;2.15;;;;;;;;;;5046742;28;20541;-57
2021/12/23 09:50:08;;;;;;;3.40;2.33;;;;;;;;;;5064067;28;20025;-57
2021/12/23 09:52:35;;;;;;;4.65;2.30;;;;;;;;;;5063880;28;20047;-57
2021/12/23 09:55:04;;;;;;;4.95;3.05;;;;;;;;;;5062980;28;20047;-57
2021/12/23 09:57:31;;;;;;;6.10;4.35;;;;;;;;;;5064196;28;20034;-57
2021/12/23 09:59:58;;;;;;;4.57;3.30;;;;;;;;;;5064036;28;20021;-57
2021/12/23 10:02:25;;;;;;;6.72;3.67;;;;;;;;;;5063697;28;20035;-57
2021/12/23 10:04:51;;;;;;;6.07;3.05;;;;;;;;;;5064567;28;20438;-57
2021/12/23 10:07:18;;;;;;;6.20;3.63;;;;;;;;;;5047342;28;20482;-56
2021/12/23 10:32:27;;;;;;;6.22;4.00;;;;;;;;;;5067379;28;20035;-57
2021/12/23 10:39:47;;;;;;;8.68;4.45;;;;;;;;;;5066836;28;20043;-57
2021/12/23 10:42:15;;;;;;;6.70;4.13;;;;;;;;;;5068394;28;20485;-57
2021/12/23 10:44:48;;;;;;;9.20;5.55;;;;;;;;;;5066966;28;20024;-57
2021/12/23 10:47:31;;;;;;;7.27;4.77;;;;;;;;;;5067467;28;20102;-57
2021/12/23 10:50:12;;;;;;;6.10;4.05;;;;;;;;;;5068110;28;20033;-57
2021/12/23 10:52:48;;;;;;;6.15;3.75;;;;;;;;;;5067224;28;20025;-57
2021/12/23 10:58:07;;;;;;;6.25;4.20;;;;;;;;;;5067673;28;20033;-57
2021/12/23 11:00:35;;;;;;;7.40;4.15;;;;;;;;;;5067310;28;20028;-56
2021/12/23 11:03:22;;;;;;;16.10;8.10;;;;;;;;;;5067102;28;20025;-56
2021/12/23 11:06:04;;;;;;;14.57;7.82;;;;;;;;;;5067065;28;20023;-57
2021/12/23 11:11:24;;;;;;;7.93;5.25;;;;;;;;;;5067866;28;20086;-57
2021/12/23 11:36:55;;;;;;;11.57;5.35;;;;;;;;;;5045959;28;20421;-56
2021/12/23 11:44:41;;;;;;;8.02;4.18;;;;;;;;;;5060841;28;20044;-57
2021/12/23 11:47:12;;;;;;;8.77;3.78;;;;;;;;;;5066490;28;20024;-57
2021/12/23 11:49:40;;;;;;;8.52;4.00;;;;;;;;;;5048559;28;20082;-57
2021/12/23 11:52:08;;;;;;;5.82;3.60;;;;;;;;;;5066071;28;20035;-56
2021/12/23 11:54:35;;;;;;;5.80;3.58;;;;;;;;;;5066540;28;20056;-57
2021/12/23 11:57:06;;;;;;;9.60;3.80;;;;;;;;;;5066241;28;20021;-57
2021/12/23 11:59:33;;;;;;;5.10;3.30;;;;;;;;;;5066113;28;20043;-57
2021/12/23 12:02:00;;;;;;;7.32;3.30;;;;;;;;;;5066212;28;20095;-57
2021/12/23 12:04:26;;;;;;;7.50;3.70;;;;;;;;;;5066282;28;20508;-57
2021/12/23 12:06:52;;;;;;;6.15;3.65;;;;;;;;;;5065955;28;20020;-56
2021/12/23 12:09:30;;;;;;;7.93;3.53;;;;;;;;;;5065771;28;20465;-56
2021/12/23 12:11:59;;;;;;;4.47;3.13;;;;;;;;;;5066521;28;20020;-56
2021/12/23 12:14:40;;;;;;;6.15;3.75;;;;;;;;;;5066211;28;20082;-57
2021/12/23 12:19:54;;;;;;;5.05;3.00;;;;;;;;;;5066022;28;20059;-57
2021/12/23 12:22:38;;;;;;;5.75;3.38;;;;;;;;;;5065413;28;20085;-56
2021/12/23 12:25:04;;;;;;;5.55;3.25;;;;;;;;;;5064101;28;20028;-56
2021/12/23 12:27:31;;;;;;;8.52;3.70;;;;;;;;;;5065084;28;20491;-55
2021/12/23 12:30:10;;;;;;;4.63;3.22;;;;;;;;;;5065751;28;20024;-56
2021/12/23 12:32:37;;;;;;;4.32;2.70;;;;;;;;;;5065387;28;20059;-57
2021/12/23 12:35:15;;;;;;;7.30;2.83;;;;;;;;;;5065240;28;20412;-57
2021/12/23 12:37:44;;;;;;;5.97;3.15;;;;;;;;;;5064728;28;20043;-56
2021/12/23 12:40:11;;;;;;;6.88;3.45;;;;;;;;;;5064943;28;20032;-56
2021/12/23 12:42:44;;;;;;;5.25;3.10;;;;;;;;;;5065169;28;20111;-56
2021/12/23 12:45:15;;;;;;;5.50;3.03;;;;;;;;;;5065211;28;20112;-57
2021/12/23 12:47:50;;;;;;;4.32;2.70;;;;;;;;;;5065313;28;20035;-56
2021/12/23 12:50:17;;;;;;;5.18;2.78;;;;;;;;;;5065026;28;20040;-55
2021/12/23 12:52:45;;;;;;;6.68;2.85;;;;;;;;;;5065172;28;20032;-57
2021/12/23 12:55:18;;;;;;;5.22;3.00;;;;;;;;;;5065160;28;20440;-57
2021/12/23 12:57:52;;;;;;;4.15;2.70;;;;;;;;;;5065081;28;20036;-57
2021/12/23 13:00:24;;;;;;;5.32;3.08;;;;;;;;;;5064786;28;20023;-57
2021/12/23 13:02:55;;;;;;;5.70;3.38;;;;;;;;;;5064753;28;20440;-57
2021/12/23 13:05:47;;;;;;;5.40;2.65;;;;;;;;;;5065570;28;20085;-57
2021/12/23 13:08:28;;;;;;;5.57;2.65;;;;;;;;;;5062523;28;20098;-57
2021/12/23 13:10:59;;;;;;;6.93;3.70;;;;;;;;;;5065936;28;20036;-57
2021/12/23 13:13:35;;;;;;;8.48;2.92;;;;;;;;;;5065096;28;20020;-57
2021/12/23 13:16:03;;;;;;;5.05;3.13;;;;;;;;;;5064916;28;20016;-57
2021/12/23 13:18:29;;;;;;;5.22;2.40;;;;;;;;;;5065547;28;20024;-56
2021/12/23 13:21:05;;;;;;;4.43;2.95;;;;;;;;;;5065467;28;20027;-57
2021/12/23 13:23:32;;;;;;;8.35;3.40;;;;;;;;;;5064792;28;20876;-57
2021/12/23 13:26:03;;;;;;;5.32;3.50;;;;;;;;;;5047835;28;20047;-57
2021/12/23 13:28:37;;;;;;;8.32;3.50;;;;;;;;;;5065882;28;20432;-57
2021/12/23 13:31:04;;;;;;;6.38;3.13;;;;;;;;;;5065248;28;20025;-57
2021/12/23 13:33:31;;;;;;;4.35;2.80;;;;;;;;;;5066213;28;20379;-57
2021/12/23 13:35:58;;;;;;;6.40;3.10;;;;;;;;;;5066329;28;20028;-57
2021/12/23 13:38:28;;;;;;;5.32;2.85;;;;;;;;;;5066008;28;20122;-57
2021/12/23 13:40:55;;;;;;;5.50;2.55;;;;;;;;;;5064129;28;20081;-56
2021/12/23 13:43:31;;;;;;;4.90;2.92;;;;;;;;;;5064871;28;20037;-57
2021/12/23 13:46:07;;;;;;;4.47;2.85;;;;;;;;;;5066142;28;20028;-57
2021/12/23 13:48:46;;;;;;;3.05;2.22;;;;;;;;;;5059776;28;20039;-57
2021/12/23 13:51:13;;;;;;;5.95;2.50;;;;;;;;;;5060648;28;20032;-57
2021/12/23 13:53:39;;;;;;;6.20;2.60;;;;;;;;;;5065545;28;20092;-57
2021/12/23 13:56:15;;;;;;;4.45;2.58;;;;;;;;;;5065191;28;20517;-57
2021/12/23 13:58:43;;;;;;;3.75;2.50;;;;;;;;;;5073800;28;20029;-56
2021/12/23 14:01:09;;;;;;;5.85;3.13;;;;;;;;;;5065275;28;20101;-57
2021/12/23 14:03:35;;;;;;;5.95;2.25;;;;;;;;;;5065153;28;20107;-57
2021/12/23 14:06:01;;;;;;;4.97;2.40;;;;;;;;;;5065611;28;20052;-57
2021/12/23 14:08:30;;;;;;;5.57;3.20;;;;;;;;;;5065904;28;20040;-56
2021/12/23 14:11:00;;;;;;;11.63;6.03;;;;;;;;;;5066155;28;20404;-57
2021/12/23 14:13:26;;;;;;;21.45;10.15;;;;;;;;;;5064611;28;20039;-57
2021/12/23 14:15:52;;;;;;;15.85;7.78;;;;;;;;;;5070109;28;20036;-56
2021/12/23 14:18:30;;;;;;;17.52;7.55;;;;;;;;;;5065584;28;20115;-57
2021/12/23 14:23:25;;;;;;;10.10;7.45;;;;;;;;;;5065245;28;20113;-57
2021/12/23 14:25:54;;;;;;;7.57;4.28;;;;;;;;;;5064756;28;20036;-56
2021/12/23 14:28:24;;;;;;;6.22;3.30;;;;;;;;;;5064010;28;20372;-57
2021/12/23 14:30:53;;;;;;;6.47;3.20;;;;;;;;;;5065164;28;20404;-56
2021/12/23 14:33:21;;;;;;;3.78;2.00;;;;;;;;;;5081404;28;20077;-58
2021/12/23 14:35:58;;;;;;;5.95;2.15;;;;;;;;;;5064422;28;20111;-57
2021/12/23 14:38:35;;;;;;;4.93;2.75;;;;;;;;;;5064646;28;20039;-56
2021/12/23 14:41:02;;;;;;;5.30;2.65;;;;;;;;;;5065123;28;20032;-57
2021/12/23 14:43:45;;;;;;;4.60;2.53;;;;;;;;;;5066972;28;20048;-58
2021/12/23 14:46:13;;;;;;;4.45;2.40;;;;;;;;;;5066128;28;20027;-57
2021/12/23 14:49:09;;;;;;;4.85;1.90;;;;;;;;;;5066262;28;20025;-57
2021/12/23 14:51:37;;;;;;;5.10;2.38;;;;;;;;;;5062039;28;20615;-57
2021/12/23 14:54:04;;;;;;;5.47;2.63;;;;;;;;;;5064851;28;20426;-57
2021/12/23 14:56:31;;;;;;;5.40;2.80;;;;;;;;;;5065285;28;20024;-57
2021/12/23 14:59:01;;;;;;;5.25;2.35;;;;;;;;;;5064003;28;20572;-57
2021/12/23 15:01:28;;;;;;;4.18;2.97;;;;;;;;;;5069604;28;20525;-57
2021/12/23 15:04:02;;;;;;;3.95;2.25;;;;;;;;;;5068946;28;20059;-57
2021/12/23 15:06:30;;;;;;;5.50;2.42;;;;;;;;;;5068967;28;20036;-57
2021/12/23 15:08:56;;;;;;;4.22;1.95;;;;;;;;;;5068844;28;20526;-57
2021/12/23 15:11:29;;;;;;;4.47;1.90;;;;;;;;;;5068513;28;20025;-57
2021/12/23 15:13:56;;;;;;;5.22;2.05;;;;;;;;;;5067842;28;20086;-57
2021/12/23 15:16:24;;;;;;;5.65;2.30;;;;;;;;;;5068138;28;20099;-57
2021/12/23 15:19:27;;;;;;;4.93;2.83;;;;;;;;;;5086001;28;20070;-57
2021/12/23 15:21:48;;;;;;;6.03;2.60;;;;;;;;;;5088377;28;20060;-57
2021/12/23 15:24:26;;;;;;;3.97;2.30;;;;;;;;;;5088611;28;20024;-57
2021/12/23 15:26:56;;;;;;;5.00;2.17;;;;;;;;;;5088686;28;20507;-57
2021/12/23 15:29:25;;;;;;;6.13;2.53;;;;;;;;;;5074434;28;20444;-57
2021/12/23 15:32:00;;;;;;;4.45;2.08;;;;;;;;;;5067497;28;20036;-57
2021/12/23 15:34:28;;;;;;;4.85;2.40;;;;;;;;;;5073714;28;20058;-57
2021/12/23 15:36:56;;;;;;;4.97;2.10;;;;;;;;;;5068496;28;20388;-56
2021/12/23 15:39:33;;;;;;;4.10;1.95;;;;;;;;;;5067705;28;20067;-56
2021/12/23 15:42:00;;;;;;;7.18;2.08;;;;;;;;;;5068751;28;20125;-57
2021/12/23 15:44:29;;;;;;;6.28;2.22;;;;;;;;;;5066872;28;20041;-56
2021/12/23 15:46:57;;;;;;;3.17;1.75;;;;;;;;;;5068799;28;20032;-57
2021/12/23 15:49:25;;;;;;;3.13;2.00;;;;;;;;;;5067465;28;20028;-57
2021/12/23 15:51:51;;;;;;;2.90;1.73;;;;;;;;;;5066572;28;20575;-57
2021/12/23 15:54:17;;;;;;;4.35;1.77;;;;;;;;;;5065986;28;20028;-57
2021/12/23 15:56:43;;;;;;;8.00;5.07;;;;;;;;;;5067284;28;20052;-57
2021/12/23 15:59:09;;;;;;;9.25;4.90;;;;;;;;;;5067267;28;20440;-58